Bradford, PA

7:43 AM EDT on September 20, 2017 (GMT -0400)
Bradford Regional

Weather History for KBFD - January, 2013

Change the Weather History Date:

Thursday, January 31, 2013

  Actual Average Record
Temperature  
Mean Temperature 32 °F 22 °F  
Max Temperature 48 °F 30 °F 55 °F (2016)
Min Temperature 17 °F 14 °F -13 °F (2010)
Degree Days  
Heating Degree Days 32 38  
Month to date heating degree days 1178  
Since 1 July heating degree days 4411  
Cooling Degree Days 0 0  
Month to date cooling degree days 0  
Year to date cooling degree days 0  
Moisture  
Dew Point 17 °F    
Average Humidity 72    
Maximum Humidity 85    
Minimum Humidity 53    
Precipitation  
Precipitation 0.18 in 0.10 in 0.84 in (1982)
Month to date precipitation 3.29  
Year to date precipitation 3.29  
Sea Level Pressure  
Sea Level Pressure 29.44 in    
Wind  
Wind Speed 15 mph (West)    
Max Wind Speed 28 mph    
Max Gust Speed 38 mph    
Visibility 2 miles    
Events Rain , Snow    
T = Trace of Precipitation, MM = Missing Value Source: NWS Daily Summary

Daily Weather History Graph

Daily Weather History Graph

Search for Another Location

Airport or City:

Trip Planner

Search our weather history database for the weather conditions in past years. The results will help you decide how hot, cold, wet, or windy it might be!

Date:

Astronomy

Jan. 31, 2013 Rise Set
Actual Time 7:27 AM EST 5:28 PM EST
Civil Twilight 6:58 AM EST 5:58 PM EST
Nautical Twilight 6:24 AM EST 6:31 PM EST
Astronomical Twilight 5:52 AM EST 7:04 PM EST
Moon 10:34 PM EST (1/31) 9:21 AM EST (1/31)
Length of Visible Light 11h 00m
Length of Day
10h 01m
Waning Gibbous, 80% of the Moon is Illuminated
Jan 31
Waning Gibbous
Feb 3
Last Quarter
Feb 10
New
Feb 17
First Quarter
Feb 25
Full

Hourly Weather History & Observations

Time (EST) Temp. Windchill Dew Point Humidity Pressure Visibility Wind Dir Wind Speed Gust Speed Precip Events Conditions
12:26 AM 48.0 °F - 42.1 °F 80% 29.17 in 7.0 mi SSW 10.4 mph 23.0 mph 0.04 in Rain Rain
12:40 AM 46.9 °F - 42.1 °F 83% 29.13 in 5.0 mi WSW 10.4 mph 25.3 mph 0.07 in Rain Rain
12:51 AM 46.4 °F 41.9 °F 41.0 °F 81% 29.13 in 6.0 mi SW 9.2 mph 27.6 mph 0.09 in Rain Rain
12:53 AM 46.9 °F - 41.0 °F 80% 29.12 in 6.0 mi SW 13.8 mph 27.6 mph 0.10 in Rain Rain
1:01 AM 46.0 °F 40.6 °F 39.0 °F 76% 29.13 in 8.0 mi SW 11.5 mph 25.3 mph 0.01 in Rain Light Rain
1:34 AM 45.0 °F 40.1 °F 39.0 °F 80% 29.11 in 10.0 mi SW 9.2 mph - 0.01 in   Overcast
1:53 AM 39.0 °F 28.0 °F 34.0 °F 82% 29.15 in 4.0 mi West 25.3 mph 38.0 mph 0.03 in Rain Rain
2:09 AM 37.0 °F 26.2 °F 32.0 °F 82% 29.14 in 7.0 mi West 21.9 mph 34.5 mph 0.01 in Rain Light Rain
2:45 AM 36.0 °F 26.7 °F 30.0 °F 79% 29.18 in 6.0 mi West 15.0 mph 27.6 mph 0.01 in Snow Light Snow
2:53 AM 35.1 °F 25.2 °F 30.0 °F 82% 29.18 in 4.0 mi West 16.1 mph 26.5 mph 0.01 in Snow Light Snow
3:29 AM 34.0 °F 22.7 °F 27.0 °F 75% 29.18 in 2.5 mi West 19.6 mph 28.8 mph 0.01 in Snow Light Snow
3:35 AM 33.1 °F 23.9 °F 28.0 °F 82% 29.18 in 1.2 mi West 12.7 mph 27.6 mph 0.01 in Snow Light Snow
3:38 AM 33.1 °F 23.9 °F 28.0 °F 82% 29.18 in 1.0 mi West 12.7 mph 26.5 mph 0.01 in Snow Light Snow
3:53 AM 32.0 °F 21.6 °F 28.0 °F 85% 29.21 in 1.5 mi West 15.0 mph 24.2 mph 0.01 in Snow Light Snow
3:56 AM 32.0 °F 23.0 °F 28.0 °F 85% 29.19 in 0.8 mi West 11.5 mph 21.9 mph 0.00 in Snow Light Snow
4:05 AM 32.0 °F 22.1 °F 27.0 °F 82% 29.19 in 1.0 mi West 13.8 mph 25.3 mph 0.00 in Snow Light Snow
4:23 AM 32.0 °F 22.5 °F 27.0 °F 82% 29.20 in 3.0 mi WSW 12.7 mph 25.3 mph 0.01 in Snow Light Snow
4:30 AM 32.0 °F 22.1 °F 27.0 °F 82% 29.20 in 2.5 mi West 13.8 mph 23.0 mph 0.01 in Snow Light Snow
4:33 AM 32.0 °F 23.0 °F 27.0 °F 82% 29.21 in 1.2 mi West 11.5 mph 23.0 mph 0.01 in Snow Light Snow
4:44 AM 30.9 °F 18.4 °F 25.0 °F 79% 29.22 in 3.0 mi West 20.7 mph 32.2 mph 0.01 in Snow Light Snow
4:53 AM 30.9 °F 18.7 °F 24.1 °F 76% 29.24 in 10.0 mi West 19.6 mph 34.5 mph 0.01 in   Overcast
5:53 AM 28.9 °F 15.8 °F 19.9 °F 69% 29.28 in 6.0 mi West 20.7 mph 29.9 mph 0.00 in Snow Light Snow
6:53 AM 27.0 °F 18.0 °F 19.0 °F 72% 29.33 in 2.0 mi West 9.2 mph 26.5 mph 0.00 in Snow Light Snow
7:04 AM 26.1 °F 12.0 °F 19.9 °F 78% 29.32 in 1.2 mi West 20.7 mph 28.8 mph 0.00 in Snow Light Snow
7:09 AM 26.1 °F 13.1 °F 19.9 °F 78% 29.32 in 0.8 mi West 17.3 mph 28.8 mph 0.00 in Snow Light Snow
7:18 AM 26.1 °F 14.0 °F 19.9 °F 78% 29.32 in 1.0 mi West 15.0 mph 31.1 mph 0.00 in Snow Light Snow
7:35 AM 26.1 °F 12.7 °F 21.0 °F 81% 29.34 in 1.0 mi West 18.4 mph 26.5 mph 0.00 in Snow Light Snow
7:40 AM 26.1 °F 15.6 °F 21.0 °F 81% 29.34 in 0.2 mi West 11.5 mph 26.5 mph 0.00 in Snow Heavy Snow
7:53 AM 25.0 °F 9.9 °F 19.9 °F 81% 29.38 in 0.2 mi West 23.0 mph 34.5 mph 0.01 in Snow Heavy Snow
8:03 AM 25.0 °F 11.3 °F 19.9 °F 81% 29.35 in 0.5 mi West 18.4 mph 31.1 mph 0.00 in Snow Snow
8:10 AM 26.1 °F 14.5 °F 19.9 °F 78% 29.36 in 2.0 mi West 13.8 mph 31.1 mph 0.00 in Snow Light Snow
8:18 AM 26.1 °F 16.2 °F 19.0 °F 75% 29.36 in 5.0 mi West 10.4 mph 21.9 mph 0.00 in   Overcast
8:39 AM 26.1 °F 14.0 °F 18.0 °F 71% 29.37 in 1.8 mi West 15.0 mph 27.6 mph 0.00 in Snow Light Snow
8:53 AM 26.1 °F 14.0 °F 18.0 °F 71% 29.42 in 1.2 mi West 15.0 mph 31.1 mph 0.00 in Snow Light Snow
9:10 AM 26.1 °F 14.0 °F 15.1 °F 63% 29.39 in 3.0 mi West 15.0 mph 29.9 mph 0.00 in   Mostly Cloudy
9:25 AM 26.1 °F 12.3 °F 15.1 °F 63% 29.41 in 2.0 mi West 19.6 mph 32.2 mph 0.00 in Snow Light Snow
9:28 AM 25.0 °F 11.3 °F 16.0 °F 69% 29.41 in 0.8 mi West 18.4 mph 32.2 mph 0.00 in Snow Light Snow
9:41 AM 24.1 °F 10.6 °F 17.1 °F 75% 29.42 in 2.0 mi West 17.3 mph 32.2 mph 0.00 in Snow Light Snow
9:53 AM 25.0 °F 10.2 °F 14.0 °F 63% 29.44 in 2.0 mi West 21.9 mph 32.2 mph 0.00 in   Overcast
10:02 AM 25.0 °F 13.6 °F 15.1 °F 66% 29.42 in 4.0 mi West 12.7 mph 33.4 mph 0.00 in   Overcast
10:07 AM 24.1 °F 11.0 °F 16.0 °F 71% 29.42 in 1.8 mi WSW 16.1 mph 29.9 mph 0.00 in Snow Light Snow
10:21 AM 23.0 °F 8.0 °F 16.0 °F 74% 29.43 in 0.5 mi West 20.7 mph 33.4 mph 0.00 in Snow Snow
10:29 AM 24.1 °F 11.0 °F 15.1 °F 69% 29.43 in 2.0 mi West 16.1 mph 31.1 mph 0.00 in Snow Light Snow
10:40 AM 24.1 °F 9.0 °F 15.1 °F 69% 29.42 in 1.2 mi West 21.9 mph 34.5 mph 0.00 in Snow Light Snow
10:53 AM 24.1 °F 8.3 °F 14.0 °F 65% 29.45 in 2.5 mi West 24.2 mph 33.4 mph 0.00 in   Mostly Cloudy
10:57 AM 24.1 °F 9.4 °F 12.9 °F 62% 29.43 in 1.8 mi West 20.7 mph 36.8 mph 0.00 in Snow Light Snow
11:02 AM 24.1 °F 9.0 °F 15.1 °F 69% 29.43 in 0.8 mi West 21.9 mph 36.8 mph 0.00 in Snow Light Snow
11:15 AM 23.0 °F 11.7 °F 16.0 °F 74% 29.44 in 1.0 mi West 11.5 mph 26.5 mph 0.00 in Snow Light Snow
11:19 AM 23.0 °F 9.6 °F 17.1 °F 78% 29.44 in 0.2 mi West 16.1 mph 25.3 mph 0.00 in Snow Heavy Snow
11:29 AM 21.9 °F 5.5 °F 17.1 °F 82% 29.45 in 0.2 mi West 24.2 mph 33.4 mph 0.00 in Snow Heavy Snow
11:34 AM 21.9 °F 7.3 °F 16.0 °F 78% 29.45 in 0.5 mi West 18.4 mph 33.4 mph 0.00 in Snow Snow
11:40 AM 23.0 °F 8.0 °F 15.1 °F 72% 29.45 in 1.2 mi West 20.7 mph 33.4 mph 0.00 in Snow Light Snow
11:44 AM 23.0 °F 10.6 °F 14.0 °F 68% 29.45 in 1.8 mi West 13.8 mph 33.4 mph 0.00 in Snow Light Snow
11:51 AM 23.0 °F 8.3 °F 12.2 °F 63% 29.46 in 1.2 mi West 19.6 mph 32.2 mph 0.00 in Snow Light Snow
11:53 AM 23.0 °F 9.2 °F 12.9 °F 65% 29.49 in 1.2 mi West 17.3 mph 32.2 mph 0.00 in Snow Light Snow
11:59 AM 21.9 °F 6.5 °F 15.1 °F 75% 29.47 in 0.2 mi West 20.7 mph 35.7 mph 0.00 in Snow Heavy Snow
12:13 PM 23.0 °F 8.0 °F 10.9 °F 60% 29.47 in 1.0 mi West 20.7 mph 32.2 mph 0.00 in Snow Light Snow
12:26 PM 23.0 °F 8.3 °F 10.0 °F 58% 29.48 in 3.0 mi West 19.6 mph 29.9 mph 0.00 in Snow Light Snow
12:29 PM 21.9 °F 4.5 °F 10.0 °F 60% 29.47 in 1.5 mi West 27.6 mph 38.0 mph 0.00 in   Overcast
12:35 PM 21.9 °F 6.9 °F 9.0 °F 58% 29.47 in 0.8 mi West 19.6 mph 38.0 mph 0.00 in Snow Light Snow
12:43 PM 23.0 °F 7.2 °F 8.1 °F 53% 29.47 in 1.8 mi West 23.0 mph 31.1 mph 0.00 in   Overcast
12:53 PM 21.9 °F 7.8 °F 9.0 °F 58% 29.52 in 1.0 mi West 17.3 mph 32.2 mph 0.00 in Snow Light Snow
1:01 PM 21.0 °F 6.6 °F 10.9 °F 65% 29.48 in 0.8 mi West 17.3 mph 29.9 mph 0.00 in Snow Light Snow
1:11 PM 21.9 °F 9.2 °F 10.9 °F 63% 29.49 in 1.8 mi West 13.8 mph 24.2 mph 0.00 in Snow Light Snow
1:18 PM 21.9 °F 9.2 °F 10.9 °F 63% 29.49 in 3.0 mi West 13.8 mph 21.9 mph 0.00 in Snow Light Snow
1:31 PM 21.0 °F 8.6 °F 10.9 °F 65% 29.49 in 1.8 mi West 12.7 mph 25.3 mph 0.00 in Snow Light Snow
1:42 PM 19.9 °F 8.6 °F 12.0 °F 71% 29.49 in 0.5 mi WSW 10.4 mph 29.9 mph 0.00 in Snow Snow
1:53 PM 21.0 °F 7.6 °F 12.0 °F 68% 29.55 in 1.8 mi West 15.0 mph 31.1 mph 0.00 in Snow Light Snow
2:12 PM 21.0 °F 8.1 °F 10.9 °F 65% 29.50 in 2.0 mi WSW 13.8 mph 29.9 mph 0.00 in Snow Light Snow
2:21 PM 21.9 °F 9.8 °F 10.9 °F 63% 29.51 in 5.0 mi West 12.7 mph 29.9 mph 0.00 in Snow Light Snow
2:53 PM 21.0 °F 5.7 °F 9.0 °F 60% 29.57 in 3.0 mi West 19.6 mph 34.5 mph 0.00 in   Overcast
2:57 PM 21.0 °F 6.6 °F 10.0 °F 63% 29.52 in 1.8 mi West 17.3 mph 34.5 mph 0.00 in Snow Light Snow
3:07 PM 21.0 °F 6.2 °F 9.0 °F 60% 29.52 in 3.0 mi WSW 18.4 mph 27.6 mph 0.00 in Snow Light Snow
3:41 PM 19.9 °F 5.7 °F 10.0 °F 65% 29.54 in 1.8 mi West 16.1 mph 27.6 mph 0.00 in Snow Light Snow
3:53 PM 19.0 °F 6.1 °F 12.9 °F 77% 29.62 in 0.5 mi West 12.7 mph 26.5 mph 0.00 in Snow Snow
4:07 PM 19.9 °F 6.7 °F 10.9 °F 68% 29.56 in 1.5 mi West 13.8 mph 24.2 mph 0.00 in Snow Light Snow
4:17 PM 19.9 °F 5.7 °F 9.0 °F 62% 29.56 in 3.0 mi West 16.1 mph 25.3 mph 0.00 in Snow Light Snow
4:31 PM 19.9 °F 7.9 °F 10.0 °F 65% 29.57 in 1.8 mi West 11.5 mph 24.2 mph 0.00 in Snow Light Snow
4:39 PM 19.0 °F 6.1 °F 10.9 °F 71% 29.58 in 0.8 mi WSW 12.7 mph 18.4 mph 0.00 in Snow Light Snow
4:53 PM 18.0 °F 3.6 °F 10.9 °F 74% 29.66 in 0.8 mi West 15.0 mph 25.3 mph 0.00 in Snow Light Snow
5:06 PM 19.0 °F 5.0 °F 10.9 °F 71% 29.59 in 2.0 mi West 15.0 mph 20.7 mph 0.00 in Snow Light Snow
5:12 PM 19.0 °F 10.0 °F 10.0 °F 68% 29.59 in 4.0 mi West 6.9 mph 20.7 mph 0.00 in Snow Light Snow
5:28 PM 19.0 °F 6.8 °F 10.0 °F 68% 29.61 in 2.0 mi West 11.5 mph 20.7 mph 0.00 in Snow Light Snow
5:35 PM 18.0 °F 4.8 °F 10.9 °F 74% 29.60 in 1.0 mi WSW 12.7 mph 21.9 mph 0.00 in Snow Light Snow
5:43 PM 18.0 °F 5.4 °F 9.0 °F 68% 29.61 in 3.0 mi West 11.5 mph 24.2 mph 0.00 in Snow Light Snow
5:53 PM 18.0 °F 6.9 °F 9.0 °F 68% 29.68 in 5.0 mi West 9.2 mph 27.6 mph 0.00 in Snow Light Snow
6:04 PM 18.0 °F 6.1 °F 10.0 °F 71% 29.62 in 2.5 mi WSW 10.4 mph 19.6 mph 0.00 in Snow Light Snow
6:09 PM 18.0 °F 6.1 °F 10.9 °F 74% 29.62 in 0.8 mi West 10.4 mph 19.6 mph 0.00 in Snow Light Snow
6:22 PM 18.0 °F 6.1 °F 10.9 °F 74% 29.63 in 2.0 mi WSW 10.4 mph 19.6 mph 0.00 in Snow Light Snow
6:38 PM 18.0 °F 6.9 °F 10.0 °F 71% 29.63 in 4.0 mi West 9.2 mph 24.2 mph 0.00 in Snow Light Snow
6:53 PM 18.0 °F 6.1 °F 9.0 °F 68% 29.70 in 5.0 mi WSW 10.4 mph 23.0 mph 0.00 in Snow Light Snow
7:32 PM 18.0 °F 6.9 °F 9.0 °F 68% 29.63 in 2.5 mi WSW 9.2 mph 27.6 mph 0.00 in Snow Light Snow
7:49 PM 17.6 °F 7.3 °F 10.4 °F 73% 29.64 in 1.8 mi West 8.1 mph - 0.00 in Snow Light Snow
7:53 PM 17.1 °F 7.6 °F 10.9 °F 77% 29.72 in 1.8 mi West 6.9 mph 17.3 mph 0.00 in Snow Light Snow
8:22 PM 17.1 °F 10.0 °F 12.0 °F 81% 29.64 in 0.8 mi WSW 4.6 mph - 0.00 in Snow Light Snow
8:53 PM 17.1 °F 10.0 °F 12.9 °F 84% 29.71 in 1.0 mi Variable 4.6 mph - 0.01 in Snow Light Snow
9:37 PM 18.0 °F 8.7 °F 12.9 °F 81% 29.64 in 1.5 mi Variable 6.9 mph - 0.00 in Snow Light Snow
9:53 PM 18.0 °F 4.8 °F 12.0 °F 78% 29.72 in 1.2 mi WSW 12.7 mph 18.4 mph 0.00 in Snow Light Snow
10:42 PM 18.0 °F 7.7 °F 12.0 °F 78% 29.65 in 0.8 mi West 8.1 mph 17.3 mph 0.00 in Snow Light Snow
10:53 PM 18.0 °F 6.1 °F 12.0 °F 78% 29.74 in 1.0 mi West 10.4 mph 21.9 mph 0.00 in Snow Light Snow
11:04 PM 18.0 °F 6.9 °F 10.0 °F 71% 29.66 in 2.0 mi West 9.2 mph 27.6 mph 0.00 in Snow Light Snow
11:17 PM 17.1 °F 3.0 °F 9.0 °F 71% 29.66 in 3.0 mi West 13.8 mph 28.8 mph 0.00 in Snow Light Snow
11:39 PM 17.1 °F 1.5 °F 7.0 °F 65% 29.66 in 6.0 mi West 17.3 mph 26.5 mph 0.00 in   Overcast
11:53 PM 17.1 °F 2.0 °F 7.0 °F 65% 29.75 in 6.0 mi West 16.1 mph 25.3 mph 0.00 in   Overcast